createdAt,value
2018-07-22T00:00:38.382Z,12.98
2018-07-22T00:01:43.162Z,17.12
2018-07-22T00:03:59.433Z,20.43
2018-07-22T00:05:05.151Z,14.53
2018-07-22T00:06:11.744Z,18.52
2018-07-22T00:07:16.684Z,16.10
2018-07-22T00:08:21.430Z,14.60
2018-07-22T00:09:27.441Z,15.80
2018-07-22T00:10:32.571Z,16.87
2018-07-22T00:11:38.221Z,14.58
2018-07-22T00:12:43.460Z,16.15
2018-07-22T00:13:52.273Z,13.08
2018-07-22T00:14:56.778Z,14.55
2018-07-22T00:16:01.360Z,17.17
2018-07-22T00:17:06.003Z,16.77
2018-07-22T00:18:10.621Z,17.37
2018-07-22T00:19:15.401Z,15.45
2018-07-22T00:20:20.475Z,20.72
2018-07-22T00:21:26.263Z,12.73
2018-07-22T00:22:32.212Z,18.07
2018-07-22T00:23:36.922Z,18.48
2018-07-22T00:24:52.500Z,19.48
2018-07-22T00:26:00.157Z,16.90
2018-07-22T00:27:06.232Z,20.60
2018-07-22T00:28:10.805Z,21.42
2018-07-22T00:29:15.720Z,20.82
2018-07-22T00:30:20.267Z,24.70
2018-07-22T00:31:25.441Z,25.23
2018-07-22T00:32:31.865Z,23.55
2018-07-22T00:33:36.587Z,19.48
2018-07-22T00:34:41.124Z,17.25
2018-07-22T00:35:46.804Z,18.23
2018-07-22T00:36:52.913Z,16.82
2018-07-22T00:37:58.449Z,16.25
2018-07-22T00:39:03.054Z,14.47
2018-07-22T00:40:09.809Z,19.07
2018-07-22T00:41:14.340Z,17.20
2018-07-22T00:42:19.206Z,15.23
2018-07-22T00:43:25.639Z,14.50
2018-07-22T00:44:31.164Z,14.25
2018-07-22T00:45:36.699Z,17.60
2018-07-22T00:46:41.255Z,20.20
2018-07-22T00:47:47.275Z,13.48
2018-07-22T00:48:51.793Z,15.72
2018-07-22T00:49:56.364Z,16.65
2018-07-22T00:51:03.279Z,16.62
2018-07-22T00:54:15.466Z,12.18
2018-07-22T00:55:20.648Z,24.80
2018-07-22T00:56:25.795Z,33.83
2018-07-22T00:57:31.824Z,20.48
2018-07-22T00:58:37.186Z,16.60
2018-07-22T00:59:43.116Z,14.25
2018-07-22T01:00:50.543Z,14.80
2018-07-22T01:01:55.137Z,27.30
2018-07-22T01:03:01.276Z,14.20
2018-07-22T01:04:06.259Z,20.00
2018-07-22T01:05:11.095Z,13.95
2018-07-22T01:06:16.472Z,15.20
2018-07-22T01:07:20.809Z,21.73
2018-07-22T01:08:25.684Z,14.85
2018-07-22T01:09:30.201Z,15.65
2018-07-22T01:10:35.932Z,21.82
2018-07-22T01:11:41.613Z,14.23
2018-07-22T01:12:46.337Z,13.20
2018-07-22T01:13:52.095Z,14.58
2018-07-22T01:14:57.475Z,14.63
2018-07-22T01:16:02.233Z,17.57
2018-07-22T01:17:07.872Z,19.60
2018-07-22T01:18:13.677Z,16.17
2018-07-22T01:19:18.153Z,18.17
2018-07-22T01:20:23.298Z,22.45
2018-07-22T01:21:28.294Z,15.95
2018-07-22T01:22:33.492Z,15.38
2018-07-22T01:23:38.188Z,16.62
2018-07-22T01:24:43.739Z,16.37
2018-07-22T01:25:48.627Z,16.67
2018-07-22T01:26:53.346Z,30.55
2018-07-22T01:27:58.852Z,14.53
2018-07-22T01:29:03.439Z,17.17
2018-07-22T01:30:11.222Z,18.25
2018-07-22T01:31:16.212Z,19.90
2018-07-22T01:32:21.848Z,29.87
2018-07-22T01:33:26.789Z,18.85
2018-07-22T01:34:32.440Z,16.50
2018-07-22T01:35:36.893Z,16.65
2018-07-22T01:36:41.331Z,19.62
2018-07-22T01:37:45.873Z,21.85
2018-07-22T01:38:50.880Z,22.20
2018-07-22T01:39:55.940Z,15.05
2018-07-22T01:41:00.645Z,19.57
2018-07-22T01:42:05.237Z,13.68
2018-07-22T01:43:09.828Z,18.32
2018-07-22T01:44:14.271Z,13.85
2018-07-22T01:45:19.024Z,14.85
2018-07-22T01:46:23.530Z,13.18
2018-07-22T01:47:28.230Z,17.67
2018-07-22T01:48:33.130Z,14.83
2018-07-22T01:49:37.817Z,21.25
2018-07-22T01:50:42.360Z,17.45
2018-07-22T01:51:47.259Z,20.75
2018-07-22T01:52:52.150Z,19.80
2018-07-22T01:53:56.920Z,13.95
2018-07-22T01:55:02.304Z,19.87
2018-07-22T01:56:07.485Z,27.02
2018-07-22T01:57:12.193Z,19.87
2018-07-22T01:58:17.076Z,14.38
2018-07-22T01:59:22.202Z,15.70
2018-07-22T02:00:28.820Z,23.57
2018-07-22T02:01:33.877Z,20.45
2018-07-22T02:02:39.124Z,21.35
2018-07-22T02:03:44.077Z,18.42
2018-07-22T02:04:49.076Z,18.98
2018-07-22T02:05:53.779Z,16.73
2018-07-22T02:06:58.667Z,15.45
2018-07-22T02:08:03.809Z,15.50
2018-07-22T02:09:10.914Z,18.60
2018-07-22T02:10:16.360Z,16.97
2018-07-22T02:11:20.897Z,17.98
2018-07-22T02:12:26.598Z,16.30
2018-07-22T02:13:31.212Z,15.55
2018-07-22T02:14:36.271Z,16.73
2018-07-22T02:15:40.738Z,16.48
2018-07-22T02:16:45.872Z,15.65
2018-07-22T02:17:50.633Z,20.77
2018-07-22T02:18:55.452Z,19.35
2018-07-22T02:20:00.191Z,19.00
2018-07-22T02:21:05.155Z,16.85
2018-07-22T02:22:09.707Z,21.87
2018-07-22T02:23:13.782Z,17.57
2018-07-22T02:24:18.436Z,18.62
2018-07-22T02:25:22.948Z,18.50
2018-07-22T02:26:27.452Z,18.80
2018-07-22T02:27:31.943Z,18.80
2018-07-22T02:28:36.704Z,20.10
2018-07-22T02:29:41.233Z,19.90
2018-07-22T02:30:45.704Z,14.50
2018-07-22T02:31:50.577Z,13.75
2018-07-22T02:32:55.375Z,21.42
2018-07-22T02:33:59.939Z,17.92
2018-07-22T02:35:04.774Z,20.55
2018-07-22T02:36:09.473Z,18.90
2018-07-22T02:37:13.948Z,20.90
2018-07-22T02:38:18.449Z,16.07
2018-07-22T02:39:23.285Z,27.60
2018-07-22T02:40:28.207Z,18.30
2018-07-22T02:41:32.796Z,15.58
2018-07-22T02:42:37.385Z,16.65
2018-07-22T02:43:41.952Z,18.98
2018-07-22T02:44:47.227Z,14.43
2018-07-22T02:45:51.877Z,15.45
2018-07-22T02:46:56.349Z,19.60
2018-07-22T02:48:03.534Z,14.47
2018-07-22T02:49:07.725Z,18.07
2018-07-22T02:50:12.207Z,19.87
2018-07-22T02:51:16.646Z,19.65
2018-07-22T02:52:24.610Z,16.65
2018-07-22T02:53:29.461Z,14.85
2018-07-22T02:54:34.073Z,18.92
2018-07-22T02:55:38.999Z,23.32
2018-07-22T02:56:43.829Z,17.15
2018-07-22T02:57:48.341Z,20.25
2018-07-22T02:58:52.817Z,23.60
2018-07-22T02:59:57.352Z,19.10
2018-07-22T03:01:02.145Z,20.57
2018-07-22T03:02:06.778Z,25.77
2018-07-22T03:03:11.791Z,15.80
2018-07-22T03:04:16.376Z,21.12
2018-07-22T03:05:20.889Z,18.52
2018-07-22T03:06:25.380Z,19.37
2018-07-22T03:07:29.928Z,24.32
2018-07-22T03:08:35.401Z,21.52
2018-07-22T03:09:40.245Z,23.65
2018-07-22T03:10:45.788Z,17.30
2018-07-22T03:11:50.461Z,22.55
2018-07-22T03:12:55.185Z,16.52
2018-07-22T03:13:59.961Z,16.90
2018-07-22T03:15:04.937Z,22.37
2018-07-22T03:16:09.682Z,22.80
2018-07-22T03:17:14.799Z,19.27
2018-07-22T03:18:19.700Z,21.73
2018-07-22T03:19:24.564Z,27.17
2018-07-22T03:20:30.010Z,19.12
2018-07-22T03:21:35.407Z,24.37
2018-07-22T03:22:39.965Z,22.40
2018-07-22T03:23:44.787Z,22.17
2018-07-22T03:24:49.798Z,20.60
2018-07-22T03:25:54.626Z,22.15
2018-07-22T03:26:59.087Z,21.75
2018-07-22T03:28:05.095Z,25.20
2018-07-22T03:29:09.808Z,22.40
2018-07-22T03:30:14.472Z,19.12
2018-07-22T03:31:19.192Z,20.20
2018-07-22T03:32:25.195Z,20.68
2018-07-22T03:33:30.697Z,21.80
2018-07-22T03:34:35.580Z,22.15
2018-07-22T03:35:40.282Z,22.15
2018-07-22T03:36:45.223Z,23.65
2018-07-22T03:37:49.933Z,24.52
2018-07-22T03:38:54.388Z,21.55
2018-07-22T03:39:59.481Z,26.35
2018-07-22T03:41:05.035Z,24.43
2018-07-22T03:42:09.946Z,26.60
2018-07-22T03:43:15.008Z,22.27
2018-07-22T03:44:19.753Z,25.75
2018-07-22T03:45:24.415Z,21.60
2018-07-22T03:46:29.228Z,23.65
2018-07-22T03:47:34.827Z,20.23
2018-07-22T03:48:39.623Z,26.55
2018-07-22T03:49:44.688Z,21.90
2018-07-22T03:50:49.359Z,19.60
2018-07-22T03:51:54.435Z,25.65
2018-07-22T03:52:59.282Z,25.12
2018-07-22T03:54:03.286Z,24.45
2018-07-22T03:55:07.876Z,22.27
2018-07-22T03:56:12.627Z,31.42
2018-07-22T03:57:17.912Z,23.10
2018-07-22T03:58:22.965Z,17.42
2018-07-22T03:59:27.565Z,19.15
2018-07-22T04:00:33.795Z,21.90
2018-07-22T04:01:38.577Z,19.77
2018-07-22T04:02:43.297Z,21.07
2018-07-22T04:03:47.883Z,19.95
2018-07-22T04:04:52.556Z,21.45
2018-07-22T04:05:57.202Z,21.62
2018-07-22T04:07:02.049Z,21.77
2018-07-22T04:08:07.790Z,22.90
2018-07-22T04:09:12.377Z,20.17
2018-07-22T04:10:17.639Z,20.25
2018-07-22T04:11:23.739Z,25.72
2018-07-22T04:12:28.328Z,24.82
2018-07-22T04:13:33.530Z,19.60
2018-07-22T04:14:38.398Z,24.65
2018-07-22T04:15:43.228Z,26.77
2018-07-22T04:16:48.057Z,22.45
2018-07-22T04:17:52.973Z,18.12
2018-07-22T04:18:57.451Z,19.30
2018-07-22T04:20:03.115Z,19.15
2018-07-22T04:21:08.548Z,22.80
2018-07-22T04:22:13.988Z,23.00
2018-07-22T04:23:18.837Z,21.15
2018-07-22T04:24:23.457Z,29.87
2018-07-22T04:25:28.007Z,23.80
2018-07-22T04:26:32.953Z,21.52
2018-07-22T04:27:37.798Z,19.55
2018-07-22T04:28:42.464Z,19.40
2018-07-22T04:29:46.933Z,18.23
2018-07-22T04:30:51.717Z,26.05
2018-07-22T04:31:56.227Z,22.65
2018-07-22T04:33:00.865Z,20.48
2018-07-22T04:34:04.849Z,26.00
2018-07-22T04:35:09.700Z,26.93
2018-07-22T04:36:14.318Z,26.07
2018-07-22T04:37:20.091Z,22.30
2018-07-22T04:38:24.765Z,19.17
2018-07-22T04:39:29.805Z,21.65
2018-07-22T04:40:35.478Z,21.95
2018-07-22T04:41:41.823Z,21.07
2018-07-22T04:42:46.354Z,24.92
2018-07-22T04:43:52.037Z,18.85
2018-07-22T04:44:57.180Z,18.07
2018-07-22T04:46:02.469Z,20.30
2018-07-22T04:47:07.162Z,22.10
2018-07-22T04:48:12.086Z,21.95
2018-07-22T04:49:17.167Z,26.10
2018-07-22T04:50:22.159Z,19.90
2018-07-22T04:51:26.638Z,22.65
2018-07-22T04:52:31.754Z,21.05
2018-07-22T04:53:36.542Z,18.42
2018-07-22T04:54:41.324Z,21.77
2018-07-22T04:55:46.071Z,20.60
2018-07-22T04:56:51.161Z,22.58
2018-07-22T04:57:55.863Z,18.77
2018-07-22T04:59:16.361Z,25.02
2018-07-22T05:00:21.247Z,23.25
2018-07-22T05:01:26.194Z,25.27
2018-07-22T05:02:30.711Z,23.83
2018-07-22T05:03:35.473Z,23.20
2018-07-22T05:04:40.154Z,23.60
2018-07-22T05:05:44.833Z,28.52
2018-07-22T05:06:49.678Z,20.17
2018-07-22T05:07:54.424Z,24.27
2018-07-22T05:08:59.198Z,26.45
2018-07-22T05:10:04.745Z,21.52
2018-07-22T05:11:09.953Z,23.75
2018-07-22T05:12:14.870Z,22.02
2018-07-22T05:13:20.160Z,23.47
2018-07-22T05:14:25.185Z,22.00
2018-07-22T05:15:30.207Z,27.62
2018-07-22T05:16:35.178Z,22.50
2018-07-22T05:17:40.456Z,19.85
2018-07-22T05:18:45.158Z,25.50
2018-07-22T05:23:01.649Z,22.87
2018-07-22T05:24:07.094Z,27.27
2018-07-22T05:25:11.706Z,25.77
2018-07-22T05:26:16.838Z,24.60
2018-07-22T05:27:21.358Z,23.38
2018-07-22T05:28:26.245Z,31.68
2018-07-22T05:29:30.854Z,23.00
2018-07-22T05:30:35.713Z,28.35
2018-07-22T05:31:41.781Z,30.10
2018-07-22T05:32:46.776Z,18.95
2018-07-22T05:33:52.151Z,26.27
2018-07-22T05:34:57.128Z,19.20
2018-07-22T05:36:01.893Z,19.55
2018-07-22T05:37:07.092Z,22.95
2018-07-22T05:38:11.801Z,24.23
2018-07-22T05:39:16.700Z,23.83
2018-07-22T05:40:21.637Z,21.57
2018-07-22T05:41:27.344Z,28.87
2018-07-22T05:42:33.369Z,24.07
2018-07-22T05:43:38.747Z,23.07
2018-07-22T05:44:43.795Z,25.60
2018-07-22T05:45:48.295Z,24.47
2018-07-22T05:46:54.553Z,23.92
2018-07-22T05:47:59.121Z,24.25
2018-07-22T05:49:04.195Z,23.30
2018-07-22T05:50:10.532Z,25.37
2018-07-22T05:51:15.044Z,26.48
2018-07-22T05:52:19.755Z,40.17
2018-07-22T05:53:24.709Z,22.17
2018-07-22T05:54:29.174Z,24.43
2018-07-22T05:55:33.770Z,22.67
2018-07-22T05:56:38.579Z,28.80
2018-07-22T05:57:43.300Z,27.65
2018-07-22T05:58:47.812Z,23.80
2018-07-22T05:59:52.321Z,25.35
2018-07-22T06:00:57.756Z,28.47
2018-07-22T06:02:02.449Z,30.27
2018-07-22T06:03:08.672Z,27.95
2018-07-22T06:04:13.805Z,25.92
2018-07-22T06:05:18.768Z,24.15
2018-07-22T06:06:23.813Z,22.07
2018-07-22T06:07:28.714Z,24.43
2018-07-22T06:08:33.835Z,29.15
2018-07-22T06:09:39.090Z,20.20
2018-07-22T06:10:43.739Z,28.57
2018-07-22T06:11:47.953Z,24.50
2018-07-22T06:12:52.589Z,19.77
2018-07-22T06:13:58.596Z,26.77
2018-07-22T06:15:03.377Z,27.40
2018-07-22T06:16:09.886Z,26.85
2018-07-22T06:17:15.404Z,24.27
2018-07-22T06:18:20.844Z,27.22
2018-07-22T06:19:29.242Z,25.43
2018-07-22T06:20:34.902Z,25.15
2018-07-22T06:21:41.176Z,30.43
2018-07-22T06:22:46.496Z,23.22
2018-07-22T06:23:52.325Z,26.97
2018-07-22T06:24:57.425Z,24.80
2018-07-22T06:26:02.220Z,24.80
2018-07-22T06:27:07.071Z,24.52
2018-07-22T06:28:12.763Z,23.83
2018-07-22T06:29:19.810Z,24.75
2018-07-22T06:30:25.065Z,21.48
2018-07-22T06:31:29.865Z,27.60
2018-07-22T06:32:34.506Z,21.50
2018-07-22T06:33:39.385Z,31.07
2018-07-22T06:34:44.445Z,22.95
2018-07-22T06:35:50.531Z,25.48
2018-07-22T06:36:55.428Z,24.18
2018-07-22T06:38:00.162Z,22.67
2018-07-22T06:39:07.112Z,31.17
2018-07-22T06:40:12.767Z,28.95
2018-07-22T06:41:17.875Z,27.75
2018-07-22T06:42:22.583Z,19.60
2018-07-22T06:43:27.166Z,30.75
2018-07-22T06:44:31.788Z,25.62
2018-07-22T06:45:37.674Z,27.98
2018-07-22T06:46:42.883Z,24.07
2018-07-22T06:47:47.730Z,27.27
2018-07-22T06:48:52.794Z,33.60
2018-07-22T06:49:57.366Z,31.12
2018-07-22T06:51:02.325Z,23.77
2018-07-22T06:52:07.609Z,27.13
2018-07-22T06:53:12.752Z,28.83
2018-07-22T06:54:17.453Z,24.18
2018-07-22T06:55:23.064Z,28.10
2018-07-22T06:56:27.737Z,21.42
2018-07-22T06:57:32.447Z,26.90
2018-07-22T06:58:37.108Z,22.55
2018-07-22T06:59:41.673Z,24.57
2018-07-22T07:00:47.358Z,28.52
2018-07-22T07:01:54.160Z,26.82
2018-07-22T07:02:58.648Z,26.25
2018-07-22T07:04:03.341Z,25.17
2018-07-22T07:05:08.688Z,26.15
2018-07-22T07:06:12.781Z,36.95
2018-07-22T07:07:17.845Z,26.12
2018-07-22T07:08:22.833Z,28.32
2018-07-22T07:09:27.300Z,26.27
2018-07-22T07:10:32.481Z,24.90
2018-07-22T07:11:37.295Z,24.67
2018-07-22T07:12:42.179Z,24.80
2018-07-22T07:13:47.091Z,25.85
2018-07-22T07:14:51.713Z,25.60
2018-07-22T07:15:56.522Z,29.15
2018-07-22T07:17:01.172Z,26.17
2018-07-22T07:18:05.803Z,23.15
2018-07-22T07:19:10.652Z,19.60
2018-07-22T07:20:15.559Z,22.93
2018-07-22T07:21:20.205Z,25.95
2018-07-22T07:22:24.762Z,24.98
2018-07-22T07:23:30.413Z,26.12
2018-07-22T07:24:35.722Z,25.85
2018-07-22T07:25:42.212Z,21.15
2018-07-22T07:26:47.023Z,29.20
2018-07-22T07:27:52.226Z,24.37
2018-07-22T07:28:57.672Z,28.23
2018-07-22T07:30:02.267Z,26.62
2018-07-22T07:31:07.527Z,28.73
2018-07-22T07:32:13.744Z,27.45
2018-07-22T07:33:18.811Z,28.75
2018-07-22T07:34:24.232Z,25.50
2018-07-22T07:35:29.688Z,26.52
2018-07-22T07:36:36.953Z,30.97
2018-07-22T07:37:44.198Z,26.40
2018-07-22T07:38:49.450Z,24.52
2018-07-22T07:39:53.980Z,29.45
2018-07-22T07:41:00.533Z,24.70
2018-07-22T07:42:11.088Z,23.30
2018-07-22T07:43:16.329Z,25.65
2018-07-22T07:44:23.833Z,26.75
2018-07-22T07:45:28.455Z,31.60
2018-07-22T07:46:33.655Z,29.15
2018-07-22T07:47:39.697Z,21.07
2018-07-22T07:48:44.698Z,25.88
2018-07-22T07:49:51.014Z,23.73
2018-07-22T07:50:55.958Z,29.57
2018-07-22T07:52:00.793Z,29.32
2018-07-22T07:53:05.876Z,24.60
2018-07-22T07:54:11.137Z,23.40
2018-07-22T07:55:15.189Z,30.15
2018-07-22T07:56:19.888Z,20.43
2018-07-22T07:57:25.099Z,28.55
2018-07-22T07:58:29.738Z,21.80
2018-07-22T07:59:35.902Z,26.73
2018-07-22T08:00:41.206Z,33.38
2018-07-22T08:01:45.812Z,32.48
2018-07-22T08:02:51.470Z,22.52
2018-07-22T08:03:56.450Z,21.73
2018-07-22T08:05:01.225Z,24.07
2018-07-22T08:06:09.204Z,49.55
2018-07-22T08:07:13.834Z,48.23
2018-07-22T08:08:19.628Z,20.17
2018-07-22T08:09:36.666Z,26.15
2018-07-22T08:10:42.545Z,25.20
2018-07-22T08:11:47.158Z,19.95
2018-07-22T08:12:53.878Z,26.95
2018-07-22T08:13:59.698Z,20.27
2018-07-22T08:15:04.459Z,22.13
2018-07-22T08:16:09.549Z,28.23
2018-07-22T08:17:14.628Z,33.30
2018-07-22T08:18:20.124Z,21.57
2018-07-22T08:19:25.322Z,24.05
2018-07-22T08:20:32.333Z,21.40
2018-07-22T08:21:39.298Z,24.35
2018-07-22T08:22:44.086Z,21.77
2018-07-22T08:23:49.622Z,25.55
2018-07-22T08:24:54.189Z,21.57
2018-07-22T08:25:59.206Z,26.95
2018-07-22T08:27:04.651Z,20.90
2018-07-22T08:28:15.026Z,35.05
2018-07-22T08:29:23.348Z,21.05
2018-07-22T08:30:28.559Z,21.77
2018-07-22T08:31:32.691Z,20.65
2018-07-22T08:32:39.412Z,25.72
2018-07-22T08:33:44.819Z,24.87
2018-07-22T08:34:49.812Z,21.37
2018-07-22T08:35:55.329Z,21.20
2018-07-22T08:37:00.237Z,27.27
2018-07-22T08:38:06.011Z,24.02
2018-07-22T08:39:11.019Z,19.02
2018-07-22T08:40:15.708Z,23.92
2018-07-22T08:41:20.777Z,37.55
2018-07-22T08:42:26.917Z,30.85
2018-07-22T08:43:31.685Z,29.60
2018-07-22T08:44:37.148Z,26.60
2018-07-22T08:45:42.347Z,23.98
2018-07-22T08:46:47.355Z,17.02
2018-07-22T08:47:52.574Z,23.45
2018-07-22T08:48:56.757Z,20.95
2018-07-22T08:50:01.480Z,23.07
2018-07-22T08:51:07.833Z,18.73
2018-07-22T08:52:12.365Z,20.68
2018-07-22T08:53:17.858Z,22.40
2018-07-22T08:54:26.335Z,17.30
2018-07-22T08:55:31.126Z,22.67
2018-07-22T08:56:36.448Z,21.40
2018-07-22T08:57:41.082Z,25.82
2018-07-22T08:58:46.331Z,21.37
2018-07-22T08:59:59.733Z,21.05
2018-07-22T09:01:05.554Z,19.05
2018-07-22T09:02:10.448Z,19.82
2018-07-22T09:03:17.039Z,19.67
2018-07-22T09:04:21.860Z,19.35
2018-07-22T09:05:26.659Z,20.20
2018-07-22T09:06:31.903Z,16.97
2018-07-22T09:07:37.150Z,22.50
2018-07-22T09:08:41.773Z,23.20
2018-07-22T09:09:47.183Z,26.42
2018-07-22T09:10:51.719Z,18.05
2018-07-22T09:11:56.466Z,20.85
2018-07-22T09:13:04.119Z,19.87
2018-07-22T09:14:09.282Z,22.82
2018-07-22T09:15:14.192Z,14.53
2018-07-22T09:16:19.211Z,20.30
2018-07-22T09:17:25.695Z,19.80
2018-07-22T09:18:31.465Z,19.75
2018-07-22T09:19:36.790Z,19.80
2018-07-22T09:20:42.136Z,18.17
2018-07-22T09:21:47.857Z,17.27
2018-07-22T09:22:52.915Z,17.17
2018-07-22T09:23:57.449Z,21.48
2018-07-22T09:25:03.398Z,12.65
2018-07-22T09:26:08.082Z,16.30
2018-07-22T09:27:12.709Z,14.10
2018-07-22T09:28:23.895Z,13.35
2018-07-22T09:29:28.435Z,14.00
2018-07-22T09:30:33.398Z,23.18
2018-07-22T09:31:37.980Z,19.85
2018-07-22T09:32:43.240Z,21.87
2018-07-22T09:33:47.960Z,14.95
2018-07-22T09:34:53.881Z,16.20
2018-07-22T09:35:59.918Z,13.95
2018-07-22T09:37:05.314Z,21.87
2018-07-22T09:38:11.674Z,13.48
2018-07-22T09:39:16.380Z,16.87
2018-07-22T09:40:22.594Z,17.23
2018-07-22T09:41:27.639Z,17.67
2018-07-22T09:42:33.806Z,21.07
2018-07-22T09:43:39.209Z,18.82
2018-07-22T09:44:45.780Z,15.63
2018-07-22T09:45:52.594Z,12.88
2018-07-22T09:46:59.559Z,16.48
2018-07-22T09:48:07.241Z,13.30
2018-07-22T09:49:12.566Z,23.60
2018-07-22T09:50:17.358Z,21.17
2018-07-22T09:51:21.821Z,17.52
2018-07-22T09:52:27.368Z,14.90
2018-07-22T09:53:32.275Z,19.92
2018-07-22T09:54:36.774Z,15.95
2018-07-22T09:55:41.503Z,12.78
2018-07-22T09:56:47.856Z,13.65
2018-07-22T09:57:52.674Z,16.12
2018-07-22T09:58:57.124Z,18.07
2018-07-22T10:00:07.486Z,23.35
2018-07-22T10:01:15.769Z,14.35
2018-07-22T10:02:20.416Z,11.53
2018-07-22T10:03:26.209Z,14.98
2018-07-22T10:04:30.946Z,12.47
2018-07-22T10:05:35.497Z,16.42
2018-07-22T10:06:40.771Z,14.70
2018-07-22T10:07:45.369Z,13.78
2018-07-22T10:08:51.400Z,15.85
2018-07-22T10:09:56.467Z,11.45
2018-07-22T10:11:01.713Z,20.97
2018-07-22T10:12:07.087Z,12.13
2018-07-22T10:13:12.342Z,12.23
2018-07-22T10:14:21.434Z,14.33
2018-07-22T10:15:26.690Z,9.50
2018-07-22T10:16:31.340Z,19.12
2018-07-22T10:17:36.919Z,13.03
2018-07-22T10:18:43.804Z,11.18
2018-07-22T10:19:50.428Z,10.60
2018-07-22T10:20:54.961Z,12.73
2018-07-22T10:22:14.122Z,11.45
2018-07-22T10:23:22.367Z,12.23
2018-07-22T10:24:29.442Z,12.23
2018-07-22T10:25:35.096Z,12.85
2018-07-22T10:26:41.077Z,11.00
2018-07-22T10:27:46.948Z,16.32
2018-07-22T10:28:51.819Z,16.77
2018-07-22T10:29:57.277Z,16.37
2018-07-22T10:31:02.635Z,11.28
2018-07-22T10:32:07.803Z,15.30
2018-07-22T10:33:13.448Z,11.12
2018-07-22T10:34:18.012Z,10.10
2018-07-22T10:35:26.510Z,15.43
2018-07-22T10:36:32.218Z,13.95
2018-07-22T10:37:36.289Z,12.20
2018-07-22T10:38:41.094Z,10.90
2018-07-22T10:39:46.410Z,10.63
2018-07-22T10:40:54.878Z,12.93
2018-07-22T10:42:15.301Z,12.73
2018-07-22T10:43:24.588Z,14.75
2018-07-22T10:44:32.513Z,19.67
2018-07-22T10:45:47.272Z,12.43
2018-07-22T10:46:52.592Z,15.85
2018-07-22T10:47:57.663Z,10.82
2018-07-22T10:49:02.839Z,15.28
2018-07-22T10:51:22.419Z,10.60
2018-07-22T10:52:29.251Z,12.30
2018-07-22T10:53:34.929Z,10.80
2018-07-22T10:54:39.905Z,13.50
2018-07-22T10:55:45.068Z,14.07
2018-07-22T10:56:49.997Z,9.48
2018-07-22T10:57:55.793Z,16.32
2018-07-22T10:59:01.123Z,12.25
2018-07-22T11:00:07.295Z,12.20
2018-07-22T11:02:24.198Z,13.15
2018-07-22T11:03:32.485Z,12.82
2018-07-22T11:04:39.692Z,13.62
2018-07-22T11:05:45.042Z,10.38
2018-07-22T11:06:49.842Z,11.60
2018-07-22T11:08:00.585Z,12.75
2018-07-22T11:09:11.764Z,9.88
2018-07-22T11:10:16.404Z,9.38
2018-07-22T11:11:21.923Z,11.83
2018-07-22T11:12:26.719Z,9.40
2018-07-22T11:13:33.076Z,9.15
2018-07-22T11:14:39.687Z,10.10
2018-07-22T11:15:45.668Z,11.08
2018-07-22T11:16:51.188Z,9.40
2018-07-22T11:17:56.199Z,11.30
2018-07-22T11:19:14.944Z,10.38
2018-07-22T11:20:22.916Z,11.20
2018-07-22T11:21:28.223Z,10.68
2018-07-22T11:22:35.095Z,6.35
2018-07-22T11:23:42.688Z,13.95
2018-07-22T11:24:48.331Z,10.75
2018-07-22T11:25:53.998Z,9.40
2018-07-22T11:27:00.719Z,14.78
2018-07-22T11:28:06.189Z,8.45
2018-07-22T11:29:10.897Z,8.53
2018-07-22T11:30:17.828Z,11.25
2018-07-22T11:31:22.960Z,9.68
2018-07-22T11:32:31.524Z,7.47
2018-07-22T11:33:37.416Z,11.57
2018-07-22T11:34:43.903Z,7.12
2018-07-22T11:35:49.330Z,9.73
2018-07-22T11:36:54.229Z,9.53
2018-07-22T11:37:59.431Z,7.92
2018-07-22T11:40:47.832Z,7.20
2018-07-22T11:41:53.269Z,8.03
2018-07-22T11:42:58.502Z,13.30
2018-07-22T11:44:08.725Z,8.08
2018-07-22T11:45:14.881Z,6.20
2018-07-22T11:46:20.465Z,9.40
2018-07-22T11:47:25.233Z,7.33
2018-07-22T11:48:32.423Z,6.10
2018-07-22T11:49:39.567Z,6.90
2018-07-22T11:50:45.837Z,12.58
2018-07-22T11:51:52.019Z,8.55
2018-07-22T11:52:58.290Z,7.22
2018-07-22T11:54:02.811Z,6.78
2018-07-22T11:55:08.434Z,7.78
2018-07-22T11:56:13.856Z,8.40
2018-07-22T11:57:19.821Z,10.23
2018-07-22T11:58:26.105Z,10.18
2018-07-22T11:59:30.940Z,11.33
2018-07-22T12:00:36.459Z,8.75
2018-07-22T12:01:42.030Z,10.72
2018-07-22T12:02:47.397Z,7.60
2018-07-22T12:03:53.835Z,7.33
2018-07-22T12:04:59.275Z,8.93
2018-07-22T12:06:05.307Z,7.75
2018-07-22T12:07:11.721Z,8.63
2018-07-22T12:08:23.630Z,10.32
2018-07-22T12:09:28.153Z,8.60
2018-07-22T12:10:33.255Z,10.93
2018-07-22T12:11:43.227Z,9.93
2018-07-22T12:12:47.742Z,7.28
2018-07-22T12:13:55.202Z,11.90
2018-07-22T12:15:00.856Z,9.03
2018-07-22T12:16:07.310Z,12.13
2018-07-22T12:17:14.090Z,12.15
2018-07-22T12:18:20.974Z,10.35
2018-07-22T12:19:26.782Z,11.97
2018-07-22T12:20:34.797Z,13.70
2018-07-22T12:21:39.654Z,11.43
2018-07-22T12:22:45.227Z,9.10
2018-07-22T12:23:50.961Z,9.50
2018-07-22T12:24:56.026Z,10.03
2018-07-22T12:26:01.405Z,9.20
2018-07-22T12:27:06.645Z,10.95
2018-07-22T12:28:11.195Z,9.00
2018-07-22T12:29:19.165Z,10.13
2018-07-22T12:30:30.334Z,11.50
2018-07-22T12:31:35.817Z,9.28
2018-07-22T12:32:43.357Z,16.75
2018-07-22T12:33:48.835Z,13.53
2018-07-22T12:34:54.544Z,13.05
2018-07-22T12:35:59.472Z,10.58
2018-07-22T12:37:04.150Z,12.98
2018-07-22T12:38:09.709Z,8.65
2018-07-22T12:39:14.907Z,14.83
2018-07-22T12:40:19.912Z,10.55
2018-07-22T12:41:25.335Z,17.52
2018-07-22T12:42:31.616Z,19.15
2018-07-22T12:43:36.297Z,13.60
2018-07-22T12:44:42.217Z,15.00
2018-07-22T12:45:49.300Z,12.43
2018-07-22T12:46:55.310Z,14.70
2018-07-22T12:48:00.386Z,10.80
2018-07-22T12:49:07.561Z,13.93
2018-07-22T12:50:15.221Z,11.12
2018-07-22T12:51:22.479Z,11.03
2018-07-22T12:52:28.258Z,16.45
2018-07-22T12:53:33.085Z,12.73
2018-07-22T12:54:39.597Z,11.83
2018-07-22T12:55:44.791Z,11.88
2018-07-22T12:56:50.244Z,15.10
2018-07-22T12:58:04.508Z,14.93
2018-07-22T12:59:11.466Z,11.65
2018-07-22T13:00:16.301Z,14.95
2018-07-22T13:01:20.819Z,12.47
2018-07-22T13:02:27.713Z,10.78
2018-07-22T13:03:32.637Z,11.85
2018-07-22T13:04:37.677Z,10.35
2018-07-22T13:05:42.402Z,10.13
2018-07-22T13:06:47.011Z,10.48
2018-07-22T13:07:52.199Z,11.43
2018-07-22T13:09:06.338Z,10.93
2018-07-22T13:10:16.475Z,10.95
2018-07-22T13:11:21.753Z,9.50
2018-07-22T13:12:26.615Z,11.75
2018-07-22T13:13:32.441Z,9.53
2018-07-22T13:14:39.168Z,12.75
2018-07-22T13:15:44.803Z,12.15
2018-07-22T13:16:49.953Z,10.90
2018-07-22T13:17:57.073Z,10.38
2018-07-22T13:19:02.458Z,10.30
2018-07-22T13:20:07.255Z,11.43
2018-07-22T13:21:14.215Z,8.48
2018-07-22T13:22:18.931Z,12.98
2018-07-22T13:23:23.615Z,9.00
2018-07-22T13:24:29.081Z,11.38
2018-07-22T13:25:33.695Z,10.98
2018-07-22T13:26:39.033Z,13.45
2018-07-22T13:27:43.619Z,12.65
2018-07-22T13:28:49.012Z,12.58
2018-07-22T13:29:57.490Z,11.97
2018-07-22T13:31:03.127Z,11.48
2018-07-22T13:32:09.772Z,12.10
2018-07-22T13:33:19.679Z,12.80
2018-07-22T13:34:46.074Z,11.78
2018-07-22T13:35:50.838Z,16.23
2018-07-22T13:36:55.399Z,11.30
2018-07-22T13:38:00.491Z,12.07
2018-07-22T13:39:08.730Z,13.22
2018-07-22T13:40:14.448Z,10.98
2018-07-22T13:41:18.540Z,15.75
2018-07-22T13:42:24.973Z,21.52
2018-07-22T13:43:30.415Z,10.90
2018-07-22T13:44:36.116Z,11.12
2018-07-22T13:45:40.717Z,14.90
2018-07-22T13:46:46.242Z,8.98
2018-07-22T13:47:54.120Z,16.87
2018-07-22T13:48:58.828Z,10.55
2018-07-22T13:50:06.119Z,8.98
2018-07-22T13:51:11.629Z,11.50
2018-07-22T13:52:16.199Z,10.72
2018-07-22T13:53:21.598Z,13.45
2018-07-22T13:54:27.677Z,10.82
2018-07-22T13:55:33.526Z,11.95
2018-07-22T13:56:38.377Z,10.63
2018-07-22T13:57:45.952Z,8.63
2018-07-22T13:58:54.535Z,11.90
2018-07-22T13:59:59.640Z,8.63
2018-07-22T14:01:04.389Z,9.98
2018-07-22T14:02:11.380Z,10.32
2018-07-22T14:03:18.214Z,7.50
2018-07-22T14:04:23.414Z,10.72
2018-07-22T14:05:29.062Z,16.48
2018-07-22T14:06:36.196Z,8.88
2018-07-22T14:07:41.698Z,9.15
2018-07-22T14:08:48.236Z,7.95
2018-07-22T14:09:57.648Z,10.90
2018-07-22T14:11:22.101Z,11.78
2018-07-22T14:12:27.866Z,12.70
2018-07-22T14:13:33.182Z,11.08
2018-07-22T14:14:38.556Z,11.25
2018-07-22T14:15:45.468Z,11.80
2018-07-22T14:16:51.208Z,13.45
2018-07-22T14:18:14.767Z,8.38